Springfield, OR (97477)

9:56 PM PDT on April 23, 2017 (GMT -0700)
McKenzie Willamette Hospital | | Change Station

Elev 463 ft 44.06 °N, 123.01 °W | Updated 33 seconds ago

Rain
Rain
48.4 °F
Feels Like 48 °F
N
2.7
Wind Variable Wind from West

Today
High -- | Low -- °F
--% Chance of Precip.
Yesterday
High -- | Low -- °F
Precip. -- in
Pressure 29.90 in
Visibility 8.0 miles
Clouds Scattered Clouds 2200 ft
Mostly Cloudy 3200 ft
Overcast 5500 ft
Windchill 48 °F
Dew Point 44 °F
Humidity 86%
Rainfall 0.02 in
Snow Depth Not available.
6:15 AM 8:06 PM
Waning Crescent, 7% visible
SPECI KEUG 240448Z 23004KT 8SM -RA SCT022 BKN032 OVC055 09/08 A2990 RMK AO2 P0003
Pressure 29.90 in
Visibility 8.0 miles
Clouds Scattered Clouds 2200 ft
Mostly Cloudy 3200 ft
Overcast 5500 ft
Windchill 48 °F
Dew Point 44 °F
Humidity 86%
Rainfall 0.02 in
Snow Depth Not available.
6:15 AM 8:06 PM
Waning Crescent, 7% visible
SPECI KEUG 240448Z 23004KT 8SM -RA SCT022 BKN032 OVC055 09/08 A2990 RMK AO2 P0003

Get Severe Weather Alerts

Thanks for signing up!

Be on the lookout for a verification email in your inbox.

You'll start receiving the daily forecast at 8 AM.

×

10-Day Weather Forecast

Almanac

Astronomy

Apr. 23, 2017 Rise Set
Actual Time
Civil Twilight
Nautical Twilight
Astronomical Twilight
Moon
Length of Visible Light
Length of Day
Tomorrow will be .
, % of the Moon is Illuminated

Today's Extremes

State Highs State Lows

Community

WunderPhotos

WunderBlog® & News

Nearby

Air Quality

  Air Quality AQ Index Pollutant
Not available.

Snow Depth

Station Depth Elevation

Earthquake Activity

City Distance Mag. Time & Date
Minimum magnitude displayed is 2.5.

Coastal Water Temperatures

Place Temperature

Stations

Nearby Weather Stations

Station Location Temp. Windchill Dew Point Humidity Wind Precip. Elev Updated Type
                   

Watches & Warnings

There are currently no watches in effect.